sensor_id;sensor_type;location;lat;lon;timestamp;pressure;altitude;pressure_sealevel;temperature;humidity
7930;BME280;4010;42.698;23.124;2023-04-26T00:01:57;118349.16;;;-140.64;100.00
7930;BME280;4010;42.698;23.124;2023-04-26T00:04:25;118349.16;;;-140.64;100.00
7930;BME280;4010;42.698;23.124;2023-04-26T00:06:53;118349.16;;;-140.64;100.00
7930;BME280;4010;42.698;23.124;2023-04-26T00:09:21;118349.16;;;-140.64;100.00
7930;BME280;4010;42.698;23.124;2023-04-26T00:11:48;118349.16;;;-140.64;100.00
7930;BME280;4010;42.698;23.124;2023-04-26T00:14:14;118349.16;;;-140.64;100.00
7930;BME280;4010;42.698;23.124;2023-04-26T00:16:41;118349.16;;;-140.64;100.00
7930;BME280;4010;42.698;23.124;2023-04-26T00:19:08;118349.16;;;-140.64;100.00
7930;BME280;4010;42.698;23.124;2023-04-26T00:21:36;118349.16;;;-140.64;100.00
7930;BME280;4010;42.698;23.124;2023-04-26T00:24:03;118349.16;;;-140.64;100.00
7930;BME280;4010;42.698;23.124;2023-04-26T00:26:31;118349.16;;;-140.64;100.00
7930;BME280;4010;42.698;23.124;2023-04-26T00:28:59;118349.16;;;-140.64;100.00
7930;BME280;4010;42.698;23.124;2023-04-26T00:31:25;118349.16;;;-140.64;100.00
7930;BME280;4010;42.698;23.124;2023-04-26T00:33:52;118349.16;;;-140.64;100.00
7930;BME280;4010;42.698;23.124;2023-04-26T00:36:19;118349.16;;;-140.64;100.00
7930;BME280;4010;42.698;23.124;2023-04-26T00:38:45;118349.16;;;-140.64;100.00
7930;BME280;4010;42.698;23.124;2023-04-26T00:41:12;118349.16;;;-140.64;100.00
7930;BME280;4010;42.698;23.124;2023-04-26T00:43:40;118349.16;;;-140.64;100.00
7930;BME280;4010;42.698;23.124;2023-04-26T00:46:08;118349.16;;;-140.64;100.00
7930;BME280;4010;42.698;23.124;2023-04-26T00:48:35;118349.16;;;-140.64;100.00
7930;BME280;4010;42.698;23.124;2023-04-26T00:51:02;118349.16;;;-140.64;100.00
7930;BME280;4010;42.698;23.124;2023-04-26T00:53:30;118349.16;;;-140.64;100.00
7930;BME280;4010;42.698;23.124;2023-04-26T00:55:58;118349.16;;;-140.64;100.00
7930;BME280;4010;42.698;23.124;2023-04-26T00:58:25;118349.16;;;-140.64;100.00
7930;BME280;4010;42.698;23.124;2023-04-26T01:00:53;118349.16;;;-140.64;100.00
7930;BME280;4010;42.698;23.124;2023-04-26T01:03:20;118349.16;;;-140.64;100.00
7930;BME280;4010;42.698;23.124;2023-04-26T01:05:47;118349.16;;;-140.64;100.00
7930;BME280;4010;42.698;23.124;2023-04-26T01:08:14;118349.16;;;-140.64;100.00
7930;BME280;4010;42.698;23.124;2023-04-26T01:10:45;118349.16;;;-140.64;100.00
7930;BME280;4010;42.698;23.124;2023-04-26T01:13:12;116958.22;;;-140.64;100.00
7930;BME280;4010;42.698;23.124;2023-04-26T01:15:42;113349.72;;;-140.64;100.00
7930;BME280;4010;42.698;23.124;2023-04-26T01:18:12;107830.03;;;-140.64;100.00
7930;BME280;4010;42.698;23.124;2023-04-26T01:20:39;114169.78;;;-140.64;100.00
7930;BME280;4010;42.698;23.124;2023-04-26T01:23:07;109406.19;;;-140.64;100.00
7930;BME280;4010;42.698;23.124;2023-04-26T01:25:34;105729.59;;;-140.64;100.00
7930;BME280;4010;42.698;23.124;2023-04-26T01:28:01;101270.31;;;-140.64;100.00
7930;BME280;4010;42.698;23.124;2023-04-26T01:30:28;97864.16;;;-140.64;100.00
7930;BME280;4010;42.698;23.124;2023-04-26T01:32:54;96293.19;;;-140.64;100.00
7930;BME280;4010;42.698;23.124;2023-04-26T01:35:21;90016.50;;;-140.64;100.00
7930;BME280;4010;42.698;23.124;2023-04-26T01:37:48;84794.59;;;-140.64;100.00
7930;BME280;4010;42.698;23.124;2023-04-26T01:40:16;82447.31;;;-140.64;100.00
7930;BME280;4010;42.698;23.124;2023-04-26T01:42:42;79841.09;;;-140.64;100.00
7930;BME280;4010;42.698;23.124;2023-04-26T01:45:10;78799.16;;;-140.64;100.00
7930;BME280;4010;42.698;23.124;2023-04-26T01:47:37;75675.25;;;-140.64;100.00
7930;BME280;4010;42.698;23.124;2023-04-26T01:50:04;72294.22;;;-140.64;100.00
7930;BME280;4010;42.698;23.124;2023-04-26T01:52:31;71774.38;;;-140.64;100.00
7930;BME280;4010;42.698;23.124;2023-04-26T01:54:58;73854.28;;;-140.64;100.00
7930;BME280;4010;42.698;23.124;2023-04-26T01:57:26;71774.38;;;-140.64;100.00
7930;BME280;4010;42.698;23.124;2023-04-26T01:59:53;70215.25;;;-140.64;100.00
7930;BME280;4010;42.698;23.124;2023-04-26T02:02:21;69176.25;;;-140.64;100.00
7930;BME280;4010;42.698;23.124;2023-04-26T02:04:47;69435.97;;;-140.64;100.00
7930;BME280;4010;42.698;23.124;2023-04-26T02:07:14;68397.19;;;-140.64;100.00
7930;BME280;4010;42.698;23.124;2023-04-26T02:09:42;68656.84;;;-140.64;100.00
7930;BME280;4010;42.698;23.124;2023-04-26T02:12:10;65282.75;;;-140.64;100.00
7930;BME280;4010;42.698;23.124;2023-04-26T02:14:38;68137.56;;;-140.64;100.00
7930;BME280;4010;42.698;23.124;2023-04-26T02:17:05;68137.56;;;-140.64;100.00
7930;BME280;4010;42.698;23.124;2023-04-26T02:19:33;65801.63;;;-140.64;100.00
7930;BME280;4010;42.698;23.124;2023-04-26T02:22:00;65801.63;;;-140.64;100.00
7930;BME280;4010;42.698;23.124;2023-04-26T02:24:26;66839.63;;;-140.64;100.00
7930;BME280;4010;42.698;23.124;2023-04-26T02:26:54;66839.63;;;-140.64;100.00
7930;BME280;4010;42.698;23.124;2023-04-26T02:29:24;64763.97;;;-140.64;100.00
7930;BME280;4010;42.698;23.124;2023-04-26T02:31:52;61912.00;;;-140.64;100.00
7930;BME280;4010;42.698;23.124;2023-04-26T02:34:19;65282.75;;;-140.64;100.00
7930;BME280;4010;42.698;23.124;2023-04-26T02:36:46;66580.09;;;-140.64;100.00
7930;BME280;4010;42.698;23.124;2023-04-26T02:39:12;65801.63;;;-140.64;100.00
7930;BME280;4010;42.698;23.124;2023-04-26T02:41:39;68656.84;;;-140.64;100.00
7930;BME280;4010;42.698;23.124;2023-04-26T02:44:06;73334.19;;;-140.64;100.00
7930;BME280;4010;42.698;23.124;2023-04-26T02:46:33;77497.19;;;-140.64;100.00
7930;BME280;4010;42.698;23.124;2023-04-26T02:49:01;77236.84;;;-140.64;100.00
7930;BME280;4010;42.698;23.124;2023-04-26T02:51:28;85838.34;;;-140.64;100.00
7930;BME280;4010;42.698;23.124;2023-04-26T02:53:54;84533.69;;;-140.64;100.00
7930;BME280;4010;42.698;23.124;2023-04-26T02:56:21;84011.97;;;-140.64;100.00
7930;BME280;4010;42.698;23.124;2023-04-26T02:58:47;85577.38;;;-140.64;100.00
7930;BME280;4010;42.698;23.124;2023-04-26T03:01:14;80101.63;;;-140.64;100.00
7930;BME280;4010;42.698;23.124;2023-04-26T03:03:42;79320.09;;;-140.64;100.00
7930;BME280;4010;42.698;23.124;2023-04-26T03:06:10;81404.59;;;-140.64;100.00
7930;BME280;4010;42.698;23.124;2023-04-26T03:08:36;81143.94;;;-140.64;100.00
7930;BME280;4010;42.698;23.124;2023-04-26T03:11:03;80883.34;;;-140.64;100.00
7930;BME280;4010;42.698;23.124;2023-04-26T03:13:31;76976.53;;;-140.64;100.00
7930;BME280;4010;42.698;23.124;2023-04-26T03:15:57;76976.53;;;-140.64;100.00
7930;BME280;4010;42.698;23.124;2023-04-26T03:18:24;76976.53;;;-140.64;100.00
7930;BME280;4010;42.698;23.124;2023-04-26T03:20:51;78799.16;;;-140.64;100.00
7930;BME280;4010;42.698;23.124;2023-04-26T03:23:19;78799.16;;;-140.64;100.00
7930;BME280;4010;42.698;23.124;2023-04-26T03:25:48;80622.75;;;-140.64;100.00
7930;BME280;4010;42.698;23.124;2023-04-26T03:28:15;81665.25;;;-140.64;100.00
7930;BME280;4010;42.698;23.124;2023-04-26T03:30:41;82447.31;;;-140.64;100.00
7930;BME280;4010;42.698;23.124;2023-04-26T03:33:08;82968.78;;;-140.64;100.00
7930;BME280;4010;42.698;23.124;2023-04-26T03:35:35;83751.16;;;-140.64;100.00
7930;BME280;4010;42.698;23.124;2023-04-26T03:38:02;84794.59;;;-140.64;100.00
7930;BME280;4010;42.698;23.124;2023-04-26T03:40:30;84533.69;;;-140.64;100.00
7930;BME280;4010;42.698;23.124;2023-04-26T03:42:56;88710.28;;;-140.64;100.00
7930;BME280;4010;42.698;23.124;2023-04-26T03:45:23;89493.94;;;-140.64;100.00
7930;BME280;4010;42.698;23.124;2023-04-26T03:47:51;93938.09;;;-140.64;100.00
7930;BME280;4010;42.698;23.124;2023-04-26T03:50:18;97864.16;;;-140.64;100.00
7930;BME280;4010;42.698;23.124;2023-04-26T03:52:45;93153.44;;;-140.64;100.00
7930;BME280;4010;42.698;23.124;2023-04-26T03:55:11;96554.97;;;-140.64;100.00
7930;BME280;4010;42.698;23.124;2023-04-26T03:57:39;105467.09;;;-140.64;100.00
7930;BME280;4010;42.698;23.124;2023-04-26T04:00:07;102319.03;;;-140.64;100.00
7930;BME280;4010;42.698;23.124;2023-04-26T04:02:36;109931.75;;;-140.64;100.00
7930;BME280;4010;42.698;23.124;2023-04-26T04:05:03;107304.78;;;-140.64;100.00
7930;BME280;4010;42.698;23.124;2023-04-26T04:07:30;118349.16;;;-140.64;100.00
7930;BME280;4010;42.698;23.124;2023-04-26T04:09:57;118349.16;;;-140.64;100.00
7930;BME280;4010;42.698;23.124;2023-04-26T04:12:24;118349.16;;;-140.64;100.00
7930;BME280;4010;42.698;23.124;2023-04-26T04:14:53;118349.16;;;-140.64;100.00
7930;BME280;4010;42.698;23.124;2023-04-26T04:17:19;118349.16;;;-140.64;100.00
7930;BME280;4010;42.698;23.124;2023-04-26T04:19:46;118349.16;;;-140.64;100.00
7930;BME280;4010;42.698;23.124;2023-04-26T04:22:13;118349.16;;;-140.64;100.00
7930;BME280;4010;42.698;23.124;2023-04-26T04:24:40;118349.16;;;-140.64;100.00
7930;BME280;4010;42.698;23.124;2023-04-26T04:27:08;118349.16;;;-140.64;100.00
7930;BME280;4010;42.698;23.124;2023-04-26T04:29:35;118349.16;;;-140.64;100.00
7930;BME280;4010;42.698;23.124;2023-04-26T04:32:04;118349.16;;;-140.64;100.00
7930;BME280;4010;42.698;23.124;2023-04-26T04:34:33;118349.16;;;-140.64;100.00
7930;BME280;4010;42.698;23.124;2023-04-26T04:37:00;118349.16;;;-140.64;100.00
7930;BME280;4010;42.698;23.124;2023-04-26T04:39:28;118349.16;;;-140.64;99.89
7930;BME280;4010;42.698;23.124;2023-04-26T04:41:55;118349.16;;;-140.64;99.08
7930;BME280;4010;42.698;23.124;2023-04-26T04:44:22;118349.16;;;-140.64;98.73
7930;BME280;4010;42.698;23.124;2023-04-26T04:46:51;118349.16;;;-140.64;96.77
7930;BME280;4010;42.698;23.124;2023-04-26T04:49:19;118349.16;;;-140.64;97.64
7930;BME280;4010;42.698;23.124;2023-04-26T04:51:49;118349.16;;;-140.64;99.91
7930;BME280;4010;42.698;23.124;2023-04-26T04:54:17;118349.16;;;-140.64;100.00
7930;BME280;4010;42.698;23.124;2023-04-26T04:56:43;118349.16;;;-140.64;100.00
7930;BME280;4010;42.698;23.124;2023-04-26T04:59:10;118349.16;;;-140.64;100.00
7930;BME280;4010;42.698;23.124;2023-04-26T05:01:37;118349.16;;;-140.64;100.00
7930;BME280;4010;42.698;23.124;2023-04-26T05:04:04;118349.16;;;-140.64;100.00
7930;BME280;4010;42.698;23.124;2023-04-26T05:06:32;118349.16;;;-140.64;100.00
7930;BME280;4010;42.698;23.124;2023-04-26T05:08:59;118349.16;;;-140.64;100.00
7930;BME280;4010;42.698;23.124;2023-04-26T05:11:26;118349.16;;;-140.64;100.00
7930;BME280;4010;42.698;23.124;2023-04-26T05:13:53;118349.16;;;-140.64;100.00
7930;BME280;4010;42.698;23.124;2023-04-26T05:16:20;118349.16;;;-140.64;100.00
7930;BME280;4010;42.698;23.124;2023-04-26T05:18:46;118349.16;;;-140.64;100.00
7930;BME280;4010;42.698;23.124;2023-04-26T05:21:13;118349.16;;;-140.64;100.00
7930;BME280;4010;42.698;23.124;2023-04-26T05:23:41;118349.16;;;-140.64;100.00
7930;BME280;4010;42.698;23.124;2023-04-26T05:26:11;118349.16;;;-140.64;100.00
7930;BME280;4010;42.698;23.124;2023-04-26T05:28:38;118349.16;;;-140.64;100.00
7930;BME280;4010;42.698;23.124;2023-04-26T05:31:05;118349.16;;;-140.64;100.00
7930;BME280;4010;42.698;23.124;2023-04-26T05:33:32;118349.16;;;-140.64;100.00
7930;BME280;4010;42.698;23.124;2023-04-26T05:35:58;118349.16;;;-140.64;98.88
7930;BME280;4010;42.698;23.124;2023-04-26T05:38:26;118349.16;;;-140.64;93.25
7930;BME280;4010;42.698;23.124;2023-04-26T05:40:54;118349.16;;;-140.64;87.09
7930;BME280;4010;42.698;23.124;2023-04-26T05:43:20;118349.16;;;-140.64;86.28
7930;BME280;4010;42.698;23.124;2023-04-26T05:45:50;118349.16;;;-140.64;85.04
7930;BME280;4010;42.698;23.124;2023-04-26T05:48:17;118349.16;;;-140.64;83.29
7930;BME280;4010;42.698;23.124;2023-04-26T05:50:44;118349.16;;;-140.64;82.22
7930;BME280;4010;42.698;23.124;2023-04-26T05:53:11;118349.16;;;-140.64;83.80
7930;BME280;4010;42.698;23.124;2023-04-26T05:55:38;118349.16;;;-140.64;84.39
7930;BME280;4010;42.698;23.124;2023-04-26T05:58:06;118349.16;;;-140.64;86.96
7930;BME280;4010;42.698;23.124;2023-04-26T06:00:33;118349.16;;;-140.64;83.38
7930;BME280;4010;42.698;23.124;2023-04-26T06:03:00;118349.16;;;-140.64;85.04
7930;BME280;4010;42.698;23.124;2023-04-26T06:05:26;118349.16;;;-140.64;85.38
7930;BME280;4010;42.698;23.124;2023-04-26T06:07:53;118349.16;;;-140.64;84.30
7930;BME280;4010;42.698;23.124;2023-04-26T06:10:20;118349.16;;;-140.64;84.48
7930;BME280;4010;42.698;23.124;2023-04-26T06:12:47;118349.16;;;-140.64;80.85
7930;BME280;4010;42.698;23.124;2023-04-26T06:15:15;118349.16;;;-140.64;80.78
7930;BME280;4010;42.698;23.124;2023-04-26T06:17:42;118349.16;;;-140.64;82.32
7930;BME280;4010;42.698;23.124;2023-04-26T06:20:09;118349.16;;;-140.64;82.41
7930;BME280;4010;42.698;23.124;2023-04-26T06:22:36;118349.16;;;-140.64;81.98
7930;BME280;4010;42.698;23.124;2023-04-26T06:25:04;118349.16;;;-140.64;83.47
7930;BME280;4010;42.698;23.124;2023-04-26T06:27:31;118349.16;;;-140.64;83.56
7930;BME280;4010;42.698;23.124;2023-04-26T06:29:58;118349.16;;;-140.64;80.81
7930;BME280;4010;42.698;23.124;2023-04-26T06:32:26;118349.16;;;-140.64;82.98
7930;BME280;4010;42.698;23.124;2023-04-26T06:34:53;118349.16;;;-140.64;83.46
7930;BME280;4010;42.698;23.124;2023-04-26T06:37:20;118349.16;;;-140.64;83.23
7930;BME280;4010;42.698;23.124;2023-04-26T06:39:46;118349.16;;;-140.64;83.47
7930;BME280;4010;42.698;23.124;2023-04-26T06:42:13;118349.16;;;-140.64;82.45
7930;BME280;4010;42.698;23.124;2023-04-26T06:44:40;118349.16;;;-140.64;80.07
7930;BME280;4010;42.698;23.124;2023-04-26T06:47:07;118349.16;;;-140.64;82.85
7930;BME280;4010;42.698;23.124;2023-04-26T06:49:36;118349.16;;;-140.64;81.53
7930;BME280;4010;42.698;23.124;2023-04-26T06:52:02;118349.16;;;-140.64;80.02
7930;BME280;4010;42.698;23.124;2023-04-26T06:54:31;118349.16;;;-140.64;77.05
7930;BME280;4010;42.698;23.124;2023-04-26T06:56:58;118349.16;;;-140.64;77.98
7930;BME280;4010;42.698;23.124;2023-04-26T06:59:25;118349.16;;;-140.64;80.92
7930;BME280;4010;42.698;23.124;2023-04-26T07:01:51;118349.16;;;-140.64;80.71
7930;BME280;4010;42.698;23.124;2023-04-26T07:04:18;118349.16;;;-140.64;77.99
7930;BME280;4010;42.698;23.124;2023-04-26T07:06:46;118349.16;;;-140.64;76.48
7930;BME280;4010;42.698;23.124;2023-04-26T07:09:13;118349.16;;;-140.64;75.17
7930;BME280;4010;42.698;23.124;2023-04-26T07:11:40;118349.16;;;-140.64;76.12
7930;BME280;4010;42.698;23.124;2023-04-26T07:14:09;118349.16;;;-140.64;70.98
7930;BME280;4010;42.698;23.124;2023-04-26T07:16:36;118349.16;;;-140.64;72.13
7930;BME280;4010;42.698;23.124;2023-04-26T07:19:02;118349.16;;;-140.64;73.35
7930;BME280;4010;42.698;23.124;2023-04-26T07:21:30;118349.16;;;-140.64;69.50
7930;BME280;4010;42.698;23.124;2023-04-26T07:23:58;118349.16;;;-140.64;66.10
7930;BME280;4010;42.698;23.124;2023-04-26T07:26:25;118349.16;;;-140.64;66.41
7930;BME280;4010;42.698;23.124;2023-04-26T07:28:52;118349.16;;;-140.64;70.35
7930;BME280;4010;42.698;23.124;2023-04-26T07:31:19;118349.16;;;-140.64;72.52
7930;BME280;4010;42.698;23.124;2023-04-26T07:33:46;118349.16;;;-140.64;73.52
7930;BME280;4010;42.698;23.124;2023-04-26T07:36:12;118349.16;;;-140.64;72.06
7930;BME280;4010;42.698;23.124;2023-04-26T07:38:39;118349.16;;;-140.64;73.22
7930;BME280;4010;42.698;23.124;2023-04-26T07:41:08;118349.16;;;-140.64;76.10
7930;BME280;4010;42.698;23.124;2023-04-26T07:43:34;118349.16;;;-140.64;72.03
7930;BME280;4010;42.698;23.124;2023-04-26T07:46:01;118349.16;;;-140.64;70.70
7930;BME280;4010;42.698;23.124;2023-04-26T07:48:28;118349.16;;;-140.64;68.17
7930;BME280;4010;42.698;23.124;2023-04-26T07:50:54;118349.16;;;-140.64;68.08
7930;BME280;4010;42.698;23.124;2023-04-26T07:53:21;118349.16;;;-140.64;68.56
7930;BME280;4010;42.698;23.124;2023-04-26T07:55:49;118349.16;;;-140.64;65.42
7930;BME280;4010;42.698;23.124;2023-04-26T07:58:18;118349.16;;;-140.64;65.96
7930;BME280;4010;42.698;23.124;2023-04-26T08:00:45;118349.16;;;-140.64;65.47
7930;BME280;4010;42.698;23.124;2023-04-26T08:03:13;118349.16;;;-140.64;65.34
7930;BME280;4010;42.698;23.124;2023-04-26T08:05:40;118349.16;;;-140.64;66.68
7930;BME280;4010;42.698;23.124;2023-04-26T08:08:07;118349.16;;;-140.64;64.88
7930;BME280;4010;42.698;23.124;2023-04-26T08:10:34;118349.16;;;-140.64;64.95
7930;BME280;4010;42.698;23.124;2023-04-26T08:13:00;118349.16;;;-140.64;62.11
7930;BME280;4010;42.698;23.124;2023-04-26T08:15:29;118349.16;;;-140.64;61.88
7930;BME280;4010;42.698;23.124;2023-04-26T08:17:57;118349.16;;;-140.64;63.37
7930;BME280;4010;42.698;23.124;2023-04-26T08:20:23;118349.16;;;-140.64;63.07
7930;BME280;4010;42.698;23.124;2023-04-26T08:22:54;118349.16;;;-140.64;62.25
7930;BME280;4010;42.698;23.124;2023-04-26T08:25:21;118349.16;;;-140.64;62.93
7930;BME280;4010;42.698;23.124;2023-04-26T08:27:48;118349.16;;;-140.64;64.10
7930;BME280;4010;42.698;23.124;2023-04-26T08:30:15;118349.16;;;-140.64;60.84
7930;BME280;4010;42.698;23.124;2023-04-26T08:32:43;118349.16;;;-140.64;58.16
7930;BME280;4010;42.698;23.124;2023-04-26T08:35:10;118349.16;;;-140.64;61.23
7930;BME280;4010;42.698;23.124;2023-04-26T08:37:37;118349.16;;;-140.64;60.11
7930;BME280;4010;42.698;23.124;2023-04-26T08:40:05;118349.16;;;-140.64;59.31
7930;BME280;4010;42.698;23.124;2023-04-26T08:42:38;118349.16;;;-140.64;61.56
7930;BME280;4010;42.698;23.124;2023-04-26T08:45:06;118349.16;;;-140.64;62.14
7930;BME280;4010;42.698;23.124;2023-04-26T08:47:39;118349.16;;;-140.64;62.21
7930;BME280;4010;42.698;23.124;2023-04-26T08:50:11;118349.16;;;-140.64;62.41
7930;BME280;4010;42.698;23.124;2023-04-26T08:52:39;118349.16;;;-140.64;64.69
7930;BME280;4010;42.698;23.124;2023-04-26T08:55:07;118349.16;;;-140.64;61.09
7930;BME280;4010;42.698;23.124;2023-04-26T08:57:34;118349.16;;;-140.64;59.95
7930;BME280;4010;42.698;23.124;2023-04-26T09:00:02;118349.16;;;-140.64;59.25
7930;BME280;4010;42.698;23.124;2023-04-26T09:02:30;118349.16;;;-140.64;60.12
7930;BME280;4010;42.698;23.124;2023-04-26T09:04:57;118349.16;;;-140.64;59.13
7930;BME280;4010;42.698;23.124;2023-04-26T09:07:30;118349.16;;;-140.64;59.50
7930;BME280;4010;42.698;23.124;2023-04-26T09:09:58;118349.16;;;-140.64;61.39
7930;BME280;4010;42.698;23.124;2023-04-26T09:12:26;118349.16;;;-140.64;63.85
7930;BME280;4010;42.698;23.124;2023-04-26T09:14:53;118349.16;;;-140.64;60.51
7930;BME280;4010;42.698;23.124;2023-04-26T09:17:24;118349.16;;;-140.64;59.04
7930;BME280;4010;42.698;23.124;2023-04-26T09:19:51;118349.16;;;-140.64;56.33
7930;BME280;4010;42.698;23.124;2023-04-26T09:22:28;118349.16;;;-140.64;57.03
7930;BME280;4010;42.698;23.124;2023-04-26T09:24:55;118349.16;;;-140.64;57.28
7930;BME280;4010;42.698;23.124;2023-04-26T09:27:31;118349.16;;;-140.64;56.15
7930;BME280;4010;42.698;23.124;2023-04-26T09:29:58;118349.16;;;-140.64;54.68
7930;BME280;4010;42.698;23.124;2023-04-26T09:32:25;118349.16;;;-140.64;57.28
7930;BME280;4010;42.698;23.124;2023-04-26T09:34:53;118349.16;;;-140.64;58.18
7930;BME280;4010;42.698;23.124;2023-04-26T09:37:20;118349.16;;;-140.64;53.21
7930;BME280;4010;42.698;23.124;2023-04-26T09:39:48;118349.16;;;-140.64;52.55
7930;BME280;4010;42.698;23.124;2023-04-26T09:42:16;118349.16;;;-140.64;52.89
7930;BME280;4010;42.698;23.124;2023-04-26T09:44:43;118349.16;;;-140.64;52.84
7930;BME280;4010;42.698;23.124;2023-04-26T09:47:10;118349.16;;;-140.64;55.23
7930;BME280;4010;42.698;23.124;2023-04-26T09:49:45;118349.16;;;-140.64;53.98
7930;BME280;4010;42.698;23.124;2023-04-26T09:52:13;118349.16;;;-140.64;54.84
7930;BME280;4010;42.698;23.124;2023-04-26T09:54:46;118349.16;;;-140.64;55.67
7930;BME280;4010;42.698;23.124;2023-04-26T09:57:15;118349.16;;;-140.64;54.78
7930;BME280;4010;42.698;23.124;2023-04-26T09:59:44;118349.16;;;-140.64;54.74
7930;BME280;4010;42.698;23.124;2023-04-26T10:02:18;118349.16;;;-140.64;56.26
7930;BME280;4010;42.698;23.124;2023-04-26T10:04:46;118349.16;;;-140.64;53.91
7930;BME280;4010;42.698;23.124;2023-04-26T10:07:14;118349.16;;;-140.64;54.92
7930;BME280;4010;42.698;23.124;2023-04-26T10:09:41;118349.16;;;-140.64;55.83
7930;BME280;4010;42.698;23.124;2023-04-26T10:12:08;118349.16;;;-140.64;51.14
7930;BME280;4010;42.698;23.124;2023-04-26T10:14:37;118349.16;;;-140.64;52.78
7930;BME280;4010;42.698;23.124;2023-04-26T10:17:04;118349.16;;;-140.64;52.35
7930;BME280;4010;42.698;23.124;2023-04-26T10:19:32;118349.16;;;-140.64;52.68
7930;BME280;4010;42.698;23.124;2023-04-26T10:22:04;118349.16;;;-140.64;50.69
7930;BME280;4010;42.698;23.124;2023-04-26T10:24:31;118349.16;;;-140.64;52.03
7930;BME280;4010;42.698;23.124;2023-04-26T10:26:57;118349.16;;;-140.64;52.10
7930;BME280;4010;42.698;23.124;2023-04-26T10:36:11;118349.16;;;-140.64;52.55
7930;BME280;4010;42.698;23.124;2023-04-26T10:38:39;118349.16;;;-140.64;52.62
7930;BME280;4010;42.698;23.124;2023-04-26T10:41:34;118349.16;;;-140.64;52.64
7930;BME280;4010;42.698;23.124;2023-04-26T10:44:39;118349.16;;;-140.64;51.33
7930;BME280;4010;42.698;23.124;2023-04-26T10:47:06;118349.16;;;-140.64;49.85
7930;BME280;4010;42.698;23.124;2023-04-26T10:49:45;118349.16;;;-140.64;50.20
7930;BME280;4010;42.698;23.124;2023-04-26T10:52:13;118349.16;;;-140.64;48.58
7930;BME280;4010;42.698;23.124;2023-04-26T10:54:47;118349.16;;;-140.64;49.93
7930;BME280;4010;42.698;23.124;2023-04-26T10:57:15;118349.16;;;-140.64;49.80
7930;BME280;4010;42.698;23.124;2023-04-26T11:02:45;118349.16;;;-140.64;46.58
7930;BME280;4010;42.698;23.124;2023-04-26T11:05:32;118349.16;;;-140.64;47.15
7930;BME280;4010;42.698;23.124;2023-04-26T11:08:05;118349.16;;;-140.64;47.35
7930;BME280;4010;42.698;23.124;2023-04-26T11:10:36;118349.16;;;-140.64;46.15
7930;BME280;4010;42.698;23.124;2023-04-26T11:13:03;118349.16;;;-140.64;48.70
7930;BME280;4010;42.698;23.124;2023-04-26T11:15:30;118349.16;;;-140.64;48.28
7930;BME280;4010;42.698;23.124;2023-04-26T11:17:58;118349.16;;;-140.64;49.94
7930;BME280;4010;42.698;23.124;2023-04-26T11:20:29;118349.16;;;-140.64;46.84
7930;BME280;4010;42.698;23.124;2023-04-26T11:22:56;118349.16;;;-140.64;48.08
7930;BME280;4010;42.698;23.124;2023-04-26T11:25:24;118349.16;;;-140.64;46.55
7930;BME280;4010;42.698;23.124;2023-04-26T11:27:56;118349.16;;;-140.64;47.44
7930;BME280;4010;42.698;23.124;2023-04-26T11:30:23;118349.16;;;-140.64;47.86
7930;BME280;4010;42.698;23.124;2023-04-26T11:32:50;118349.16;;;-140.64;48.54
7930;BME280;4010;42.698;23.124;2023-04-26T11:35:16;118349.16;;;-140.64;46.46
7930;BME280;4010;42.698;23.124;2023-04-26T11:37:45;118349.16;;;-140.64;46.51
7930;BME280;4010;42.698;23.124;2023-04-26T11:40:15;118349.16;;;-140.64;47.00
7930;BME280;4010;42.698;23.124;2023-04-26T11:42:43;118349.16;;;-140.64;47.91
7930;BME280;4010;42.698;23.124;2023-04-26T11:45:10;118349.16;;;-140.64;47.25
7930;BME280;4010;42.698;23.124;2023-04-26T11:47:37;118349.16;;;-140.64;48.92
7930;BME280;4010;42.698;23.124;2023-04-26T11:50:06;118349.16;;;-140.64;47.55
7930;BME280;4010;42.698;23.124;2023-04-26T11:52:33;118349.16;;;-140.64;46.75
7930;BME280;4010;42.698;23.124;2023-04-26T11:55:03;118349.16;;;-140.64;46.59
7930;BME280;4010;42.698;23.124;2023-04-26T11:57:31;118349.16;;;-140.64;45.78
7930;BME280;4010;42.698;23.124;2023-04-26T12:00:08;118349.16;;;-140.64;45.13
7930;BME280;4010;42.698;23.124;2023-04-26T12:02:36;118349.16;;;-140.64;45.91
7930;BME280;4010;42.698;23.124;2023-04-26T12:05:04;118349.16;;;-140.64;47.85
7930;BME280;4010;42.698;23.124;2023-04-26T12:07:34;118349.16;;;-140.64;46.07
7930;BME280;4010;42.698;23.124;2023-04-26T12:10:16;118349.16;;;-140.64;46.93
7930;BME280;4010;42.698;23.124;2023-04-26T12:12:44;118349.16;;;-140.64;47.89
7930;BME280;4010;42.698;23.124;2023-04-26T12:15:13;118349.16;;;-140.64;48.71
7930;BME280;4010;42.698;23.124;2023-04-26T12:17:40;118349.16;;;-140.64;47.55
7930;BME280;4010;42.698;23.124;2023-04-26T12:20:10;118349.16;;;-140.64;49.55
7930;BME280;4010;42.698;23.124;2023-04-26T12:22:37;118349.16;;;-140.64;46.34
7930;BME280;4010;42.698;23.124;2023-04-26T12:25:05;118349.16;;;-140.64;47.64
7930;BME280;4010;42.698;23.124;2023-04-26T12:27:33;118349.16;;;-140.64;47.23
7930;BME280;4010;42.698;23.124;2023-04-26T12:30:00;118349.16;;;-140.64;48.63
7930;BME280;4010;42.698;23.124;2023-04-26T12:32:27;118349.16;;;-140.64;48.53
7930;BME280;4010;42.698;23.124;2023-04-26T12:34:54;118349.16;;;-140.64;48.06
7930;BME280;4010;42.698;23.124;2023-04-26T12:37:20;118349.16;;;-140.64;49.08
7930;BME280;4010;42.698;23.124;2023-04-26T12:39:47;118349.16;;;-140.64;46.75
7930;BME280;4010;42.698;23.124;2023-04-26T12:42:14;118349.16;;;-140.64;46.58
7930;BME280;4010;42.698;23.124;2023-04-26T12:44:42;118349.16;;;-140.64;47.43
7930;BME280;4010;42.698;23.124;2023-04-26T12:47:09;118349.16;;;-140.64;47.23
7930;BME280;4010;42.698;23.124;2023-04-26T12:49:35;118349.16;;;-140.64;46.55
7930;BME280;4010;42.698;23.124;2023-04-26T12:52:02;118349.16;;;-140.64;48.85